sensor_id;sensor_type;location;lat;lon;timestamp;P1;durP1;ratioP1;P2;durP2;ratioP2
52724;SDS011;38621;52.830;6.914;2024-02-21T00:00:46;397.10;;;378.52;;
52724;SDS011;38621;52.830;6.914;2024-02-21T00:03:12;281.05;;;267.65;;
52724;SDS011;38621;52.830;6.914;2024-02-21T00:05:37;334.58;;;317.58;;
52724;SDS011;38621;52.830;6.914;2024-02-21T00:08:03;135.88;;;130.32;;
52724;SDS011;38621;52.830;6.914;2024-02-21T00:10:29;222.10;;;212.82;;
52724;SDS011;38621;52.830;6.914;2024-02-21T00:12:56;280.27;;;267.20;;
52724;SDS011;38621;52.830;6.914;2024-02-21T00:15:24;225.02;;;214.23;;
52724;SDS011;38621;52.830;6.914;2024-02-21T00:17:50;299.27;;;285.08;;
52724;SDS011;38621;52.830;6.914;2024-02-21T00:20:16;332.27;;;316.05;;
52724;SDS011;38621;52.830;6.914;2024-02-21T00:22:42;211.52;;;202.32;;
52724;SDS011;38621;52.830;6.914;2024-02-21T00:25:11;440.30;;;416.83;;
52724;SDS011;38621;52.830;6.914;2024-02-21T00:27:37;397.38;;;378.05;;
52724;SDS011;38621;52.830;6.914;2024-02-21T00:30:04;260.98;;;249.05;;
52724;SDS011;38621;52.830;6.914;2024-02-21T00:32:30;190.05;;;182.07;;
52724;SDS011;38621;52.830;6.914;2024-02-21T00:34:57;184.88;;;177.07;;
52724;SDS011;38621;52.830;6.914;2024-02-21T00:37:22;144.77;;;138.57;;
52724;SDS011;38621;52.830;6.914;2024-02-21T00:39:48;363.67;;;346.63;;
52724;SDS011;38621;52.830;6.914;2024-02-21T00:42:14;281.02;;;269.40;;
52724;SDS011;38621;52.830;6.914;2024-02-21T00:44:39;336.60;;;319.05;;
52724;SDS011;38621;52.830;6.914;2024-02-21T00:47:05;331.77;;;315.65;;
52724;SDS011;38621;52.830;6.914;2024-02-21T00:49:31;136.77;;;131.45;;
52724;SDS011;38621;52.830;6.914;2024-02-21T00:51:56;275.75;;;262.83;;
52724;SDS011;38621;52.830;6.914;2024-02-21T00:54:22;248.93;;;238.40;;
52724;SDS011;38621;52.830;6.914;2024-02-21T00:56:48;278.40;;;266.85;;
52724;SDS011;38621;52.830;6.914;2024-02-21T00:59:13;190.20;;;182.25;;
52724;SDS011;38621;52.830;6.914;2024-02-21T01:01:39;138.75;;;132.95;;
52724;SDS011;38621;52.830;6.914;2024-02-21T01:04:08;257.88;;;246.43;;
52724;SDS011;38621;52.830;6.914;2024-02-21T01:06:34;108.82;;;104.53;;
52724;SDS011;38621;52.830;6.914;2024-02-21T01:09:00;233.13;;;223.10;;
52724;SDS011;38621;52.830;6.914;2024-02-21T01:11:25;230.75;;;221.50;;
52724;SDS011;38621;52.830;6.914;2024-02-21T01:13:51;181.50;;;174.05;;
52724;SDS011;38621;52.830;6.914;2024-02-21T01:16:16;379.67;;;361.95;;
52724;SDS011;38621;52.830;6.914;2024-02-21T01:18:42;130.05;;;124.60;;
52724;SDS011;38621;52.830;6.914;2024-02-21T01:21:08;272.63;;;261.45;;
52724;SDS011;38621;52.830;6.914;2024-02-21T01:23:35;290.25;;;276.95;;
52724;SDS011;38621;52.830;6.914;2024-02-21T01:26:02;322.75;;;309.25;;
52724;SDS011;38621;52.830;6.914;2024-02-21T01:28:29;186.88;;;178.80;;
52724;SDS011;38621;52.830;6.914;2024-02-21T01:30:55;247.80;;;237.07;;
52724;SDS011;38621;52.830;6.914;2024-02-21T01:33:21;226.30;;;216.27;;
52724;SDS011;38621;52.830;6.914;2024-02-21T01:35:47;206.93;;;198.80;;
52724;SDS011;38621;52.830;6.914;2024-02-21T01:38:13;395.48;;;374.77;;
52724;SDS011;38621;52.830;6.914;2024-02-21T01:40:39;314.27;;;300.15;;
52724;SDS011;38621;52.830;6.914;2024-02-21T01:43:14;131.15;;;125.90;;
52724;SDS011;38621;52.830;6.914;2024-02-21T01:45:41;143.55;;;137.93;;
52724;SDS011;38621;52.830;6.914;2024-02-21T01:48:07;316.48;;;301.50;;
52724;SDS011;38621;52.830;6.914;2024-02-21T01:50:33;179.60;;;172.25;;
52724;SDS011;38621;52.830;6.914;2024-02-21T01:52:58;370.42;;;354.15;;
52724;SDS011;38621;52.830;6.914;2024-02-21T01:55:25;113.43;;;109.00;;
52724;SDS011;38621;52.830;6.914;2024-02-21T01:57:51;157.05;;;151.00;;
52724;SDS011;38621;52.830;6.914;2024-02-21T02:00:17;111.15;;;106.55;;
52724;SDS011;38621;52.830;6.914;2024-02-21T02:02:43;378.33;;;360.05;;
52724;SDS011;38621;52.830;6.914;2024-02-21T02:05:10;120.07;;;115.63;;
52724;SDS011;38621;52.830;6.914;2024-02-21T02:07:37;113.78;;;109.35;;
52724;SDS011;38621;52.830;6.914;2024-02-21T02:10:03;304.83;;;289.95;;
52724;SDS011;38621;52.830;6.914;2024-02-21T02:12:29;139.13;;;133.73;;
52724;SDS011;38621;52.830;6.914;2024-02-21T02:15:01;177.00;;;169.48;;
52724;SDS011;38621;52.830;6.914;2024-02-21T02:17:30;134.65;;;129.43;;
52724;SDS011;38621;52.830;6.914;2024-02-21T02:19:56;156.85;;;150.98;;
52724;SDS011;38621;52.830;6.914;2024-02-21T02:22:22;135.00;;;129.35;;
52724;SDS011;38621;52.830;6.914;2024-02-21T02:24:53;120.32;;;115.50;;
52724;SDS011;38621;52.830;6.914;2024-02-21T02:27:19;135.57;;;129.70;;
52724;SDS011;38621;52.830;6.914;2024-02-21T02:29:45;229.05;;;219.93;;
52724;SDS011;38621;52.830;6.914;2024-02-21T02:32:11;146.93;;;140.95;;
52724;SDS011;38621;52.830;6.914;2024-02-21T02:34:37;383.67;;;362.58;;
52724;SDS011;38621;52.830;6.914;2024-02-21T02:37:02;131.07;;;125.95;;
52724;SDS011;38621;52.830;6.914;2024-02-21T02:39:28;120.93;;;116.03;;
52724;SDS011;38621;52.830;6.914;2024-02-21T02:41:54;146.93;;;140.77;;
52724;SDS011;38621;52.830;6.914;2024-02-21T02:44:19;340.25;;;324.13;;
52724;SDS011;38621;52.830;6.914;2024-02-21T02:46:45;227.48;;;217.57;;
52724;SDS011;38621;52.830;6.914;2024-02-21T02:49:11;364.17;;;346.45;;
52724;SDS011;38621;52.830;6.914;2024-02-21T02:51:36;176.23;;;169.00;;
52724;SDS011;38621;52.830;6.914;2024-02-21T02:54:06;170.38;;;163.55;;
52724;SDS011;38621;52.830;6.914;2024-02-21T02:56:31;191.68;;;183.52;;
52724;SDS011;38621;52.830;6.914;2024-02-21T02:58:57;199.32;;;191.63;;
52724;SDS011;38621;52.830;6.914;2024-02-21T03:01:23;117.57;;;112.95;;
52724;SDS011;38621;52.830;6.914;2024-02-21T03:03:48;155.20;;;149.15;;
52724;SDS011;38621;52.830;6.914;2024-02-21T03:06:14;182.75;;;175.73;;
52724;SDS011;38621;52.830;6.914;2024-02-21T03:08:40;277.65;;;265.50;;
52724;SDS011;38621;52.830;6.914;2024-02-21T03:11:05;138.45;;;132.77;;
52724;SDS011;38621;52.830;6.914;2024-02-21T03:13:31;175.00;;;167.88;;
52724;SDS011;38621;52.830;6.914;2024-02-21T03:15:56;215.40;;;205.45;;
52724;SDS011;38621;52.830;6.914;2024-02-21T03:18:22;187.75;;;180.05;;
52724;SDS011;38621;52.830;6.914;2024-02-21T03:20:48;414.45;;;391.17;;
52724;SDS011;38621;52.830;6.914;2024-02-21T03:23:13;199.00;;;190.55;;
52724;SDS011;38621;52.830;6.914;2024-02-21T03:25:39;374.90;;;356.33;;
52724;SDS011;38621;52.830;6.914;2024-02-21T03:28:05;128.20;;;123.10;;
52724;SDS011;38621;52.830;6.914;2024-02-21T03:30:30;120.65;;;115.93;;
52724;SDS011;38621;52.830;6.914;2024-02-21T03:32:56;222.05;;;211.98;;
52724;SDS011;38621;52.830;6.914;2024-02-21T03:35:22;128.45;;;123.30;;
52724;SDS011;38621;52.830;6.914;2024-02-21T03:37:51;117.72;;;113.00;;
52724;SDS011;38621;52.830;6.914;2024-02-21T03:40:17;184.65;;;177.15;;
52724;SDS011;38621;52.830;6.914;2024-02-21T03:42:43;131.45;;;125.95;;
52724;SDS011;38621;52.830;6.914;2024-02-21T03:45:09;186.30;;;179.30;;
52724;SDS011;38621;52.830;6.914;2024-02-21T03:47:34;276.38;;;263.67;;
52724;SDS011;38621;52.830;6.914;2024-02-21T03:50:00;163.55;;;157.32;;
52724;SDS011;38621;52.830;6.914;2024-02-21T03:52:26;159.70;;;152.45;;
52724;SDS011;38621;52.830;6.914;2024-02-21T03:54:52;172.68;;;166.10;;
52724;SDS011;38621;52.830;6.914;2024-02-21T03:57:20;205.10;;;197.00;;
52724;SDS011;38621;52.830;6.914;2024-02-21T03:59:46;240.30;;;229.48;;
52724;SDS011;38621;52.830;6.914;2024-02-21T04:02:12;209.70;;;201.38;;
52724;SDS011;38621;52.830;6.914;2024-02-21T04:04:37;150.60;;;144.32;;
52724;SDS011;38621;52.830;6.914;2024-02-21T04:07:04;205.85;;;197.82;;
52724;SDS011;38621;52.830;6.914;2024-02-21T04:09:33;170.52;;;164.07;;
52724;SDS011;38621;52.830;6.914;2024-02-21T04:12:00;280.30;;;266.88;;
52724;SDS011;38621;52.830;6.914;2024-02-21T04:14:26;190.07;;;182.18;;
52724;SDS011;38621;52.830;6.914;2024-02-21T04:16:51;150.90;;;144.82;;
52724;SDS011;38621;52.830;6.914;2024-02-21T04:19:17;174.45;;;167.60;;
52724;SDS011;38621;52.830;6.914;2024-02-21T04:21:43;144.82;;;138.98;;
52724;SDS011;38621;52.830;6.914;2024-02-21T04:24:08;212.70;;;203.77;;
52724;SDS011;38621;52.830;6.914;2024-02-21T04:26:34;179.30;;;172.40;;
52724;SDS011;38621;52.830;6.914;2024-02-21T04:29:00;158.73;;;152.80;;
52724;SDS011;38621;52.830;6.914;2024-02-21T04:31:25;141.88;;;135.93;;
52724;SDS011;38621;52.830;6.914;2024-02-21T04:33:51;164.48;;;157.70;;
52724;SDS011;38621;52.830;6.914;2024-02-21T04:36:17;222.27;;;213.65;;
52724;SDS011;38621;52.830;6.914;2024-02-21T04:38:42;179.32;;;172.18;;
52724;SDS011;38621;52.830;6.914;2024-02-21T04:41:08;170.82;;;164.15;;
52724;SDS011;38621;52.830;6.914;2024-02-21T04:43:34;154.63;;;148.40;;
52724;SDS011;38621;52.830;6.914;2024-02-21T04:46:00;169.18;;;162.52;;
52724;SDS011;38621;52.830;6.914;2024-02-21T04:48:26;219.68;;;210.90;;
52724;SDS011;38621;52.830;6.914;2024-02-21T04:50:51;128.70;;;123.18;;
52724;SDS011;38621;52.830;6.914;2024-02-21T04:53:17;135.00;;;129.32;;
52724;SDS011;38621;52.830;6.914;2024-02-21T04:55:43;161.57;;;155.10;;
52724;SDS011;38621;52.830;6.914;2024-02-21T04:58:09;134.05;;;128.90;;
52724;SDS011;38621;52.830;6.914;2024-02-21T05:00:35;141.10;;;135.27;;
52724;SDS011;38621;52.830;6.914;2024-02-21T05:03:01;156.82;;;150.65;;
52724;SDS011;38621;52.830;6.914;2024-02-21T05:05:26;161.50;;;155.45;;
52724;SDS011;38621;52.830;6.914;2024-02-21T05:07:52;152.43;;;146.55;;
52724;SDS011;38621;52.830;6.914;2024-02-21T05:10:18;198.63;;;189.90;;
52724;SDS011;38621;52.830;6.914;2024-02-21T05:12:44;181.73;;;174.60;;
52724;SDS011;38621;52.830;6.914;2024-02-21T05:15:10;136.10;;;131.10;;
52724;SDS011;38621;52.830;6.914;2024-02-21T05:17:35;209.38;;;200.23;;
52724;SDS011;38621;52.830;6.914;2024-02-21T05:20:01;135.27;;;129.32;;
52724;SDS011;38621;52.830;6.914;2024-02-21T05:22:27;281.73;;;270.23;;
52724;SDS011;38621;52.830;6.914;2024-02-21T05:24:52;148.15;;;141.70;;
52724;SDS011;38621;52.830;6.914;2024-02-21T05:27:18;175.07;;;167.52;;
52724;SDS011;38621;52.830;6.914;2024-02-21T05:29:44;154.57;;;148.75;;
52724;SDS011;38621;52.830;6.914;2024-02-21T05:32:10;172.05;;;165.10;;
52724;SDS011;38621;52.830;6.914;2024-02-21T05:34:35;238.88;;;228.20;;
52724;SDS011;38621;52.830;6.914;2024-02-21T05:37:01;179.75;;;172.52;;
52724;SDS011;38621;52.830;6.914;2024-02-21T05:39:27;165.48;;;159.05;;
52724;SDS011;38621;52.830;6.914;2024-02-21T05:41:54;204.40;;;196.65;;
52724;SDS011;38621;52.830;6.914;2024-02-21T05:44:20;142.55;;;136.73;;
52724;SDS011;38621;52.830;6.914;2024-02-21T05:46:47;255.60;;;245.32;;
52724;SDS011;38621;52.830;6.914;2024-02-21T05:49:13;193.02;;;185.73;;
52724;SDS011;38621;52.830;6.914;2024-02-21T05:51:39;170.02;;;163.27;;
52724;SDS011;38621;52.830;6.914;2024-02-21T05:54:05;1999.90;;;999.90;;
52724;SDS011;38621;52.830;6.914;2024-02-21T05:56:32;237.07;;;228.18;;
52724;SDS011;38621;52.830;6.914;2024-02-21T05:58:58;259.58;;;249.57;;
52724;SDS011;38621;52.830;6.914;2024-02-21T06:01:24;337.05;;;323.42;;
52724;SDS011;38621;52.830;6.914;2024-02-21T06:03:49;1999.90;;;999.90;;
52724;SDS011;38621;52.830;6.914;2024-02-21T06:06:15;703.78;;;445.33;;
52724;SDS011;38621;52.830;6.914;2024-02-21T06:08:41;280.30;;;269.90;;
52724;SDS011;38621;52.830;6.914;2024-02-21T06:11:07;1999.90;;;999.90;;
52724;SDS011;38621;52.830;6.914;2024-02-21T06:13:32;266.98;;;256.63;;
52724;SDS011;38621;52.830;6.914;2024-02-21T06:15:58;1528.45;;;777.35;;
52724;SDS011;38621;52.830;6.914;2024-02-21T06:18:24;1537.97;;;786.55;;
52724;SDS011;38621;52.830;6.914;2024-02-21T06:20:49;1515.97;;;765.40;;
52724;SDS011;38621;52.830;6.914;2024-02-21T06:23:16;1517.28;;;766.60;;
52724;SDS011;38621;52.830;6.914;2024-02-21T06:25:42;1180.65;;;672.80;;
52724;SDS011;38621;52.830;6.914;2024-02-21T06:28:08;1555.35;;;802.95;;
52724;SDS011;38621;52.830;6.914;2024-02-21T06:30:34;99.70;;;95.47;;
52724;SDS011;38621;52.830;6.914;2024-02-21T06:33:00;1582.43;;;828.70;;
52724;SDS011;38621;52.830;6.914;2024-02-21T06:35:27;220.05;;;211.52;;
52724;SDS011;38621;52.830;6.914;2024-02-21T06:37:53;167.48;;;160.80;;
52724;SDS011;38621;52.830;6.914;2024-02-21T06:40:20;428.17;;;407.75;;
52724;SDS011;38621;52.830;6.914;2024-02-21T06:42:47;172.32;;;164.93;;
52724;SDS011;38621;52.830;6.914;2024-02-21T06:45:13;268.40;;;253.32;;
52724;SDS011;38621;52.830;6.914;2024-02-21T06:47:39;103.65;;;99.47;;
52724;SDS011;38621;52.830;6.914;2024-02-21T06:50:05;195.73;;;187.23;;
52724;SDS011;38621;52.830;6.914;2024-02-21T06:52:31;299.33;;;285.20;;
52724;SDS011;38621;52.830;6.914;2024-02-21T06:54:57;513.00;;;484.73;;
52724;SDS011;38621;52.830;6.914;2024-02-21T06:57:22;531.25;;;497.45;;
52724;SDS011;38621;52.830;6.914;2024-02-21T06:59:48;153.15;;;146.98;;
52724;SDS011;38621;52.830;6.914;2024-02-21T07:02:14;1540.80;;;789.17;;
52724;SDS011;38621;52.830;6.914;2024-02-21T07:04:40;157.70;;;150.38;;
52724;SDS011;38621;52.830;6.914;2024-02-21T07:07:06;1999.90;;;999.90;;
52724;SDS011;38621;52.830;6.914;2024-02-21T07:09:32;1072.45;;;569.00;;
52724;SDS011;38621;52.830;6.914;2024-02-21T07:12:00;830.33;;;566.03;;
52724;SDS011;38621;52.830;6.914;2024-02-21T07:14:27;1999.90;;;999.90;;
52724;SDS011;38621;52.830;6.914;2024-02-21T07:16:53;1543.45;;;791.70;;
52724;SDS011;38621;52.830;6.914;2024-02-21T07:19:19;1555.72;;;802.97;;
52724;SDS011;38621;52.830;6.914;2024-02-21T07:21:45;1537.80;;;786.30;;
52724;SDS011;38621;52.830;6.914;2024-02-21T07:24:11;285.60;;;272.52;;
52724;SDS011;38621;52.830;6.914;2024-02-21T07:26:37;1548.40;;;796.40;;
52724;SDS011;38621;52.830;6.914;2024-02-21T07:29:06;1999.90;;;999.90;;
52724;SDS011;38621;52.830;6.914;2024-02-21T07:31:37;281.80;;;268.85;;
52724;SDS011;38621;52.830;6.914;2024-02-21T07:34:04;1085.07;;;580.30;;
52724;SDS011;38621;52.830;6.914;2024-02-21T07:36:30;229.05;;;218.30;;
52724;SDS011;38621;52.830;6.914;2024-02-21T07:38:56;1999.90;;;999.90;;
52724;SDS011;38621;52.830;6.914;2024-02-21T07:41:21;1999.90;;;999.90;;
52724;SDS011;38621;52.830;6.914;2024-02-21T07:43:47;1999.90;;;999.90;;
52724;SDS011;38621;52.830;6.914;2024-02-21T07:46:13;1524.90;;;773.90;;
52724;SDS011;38621;52.830;6.914;2024-02-21T07:48:39;1531.20;;;779.97;;
52724;SDS011;38621;52.830;6.914;2024-02-21T07:51:05;185.82;;;177.90;;
52724;SDS011;38621;52.830;6.914;2024-02-21T07:53:31;170.40;;;162.77;;
52724;SDS011;38621;52.830;6.914;2024-02-21T07:55:56;1558.07;;;805.15;;
52724;SDS011;38621;52.830;6.914;2024-02-21T07:58:22;1999.90;;;999.90;;
52724;SDS011;38621;52.830;6.914;2024-02-21T08:00:48;1524.25;;;772.95;;
52724;SDS011;38621;52.830;6.914;2024-02-21T08:03:13;1521.40;;;770.50;;
52724;SDS011;38621;52.830;6.914;2024-02-21T08:05:40;1999.90;;;999.90;;
52724;SDS011;38621;52.830;6.914;2024-02-21T08:08:06;1999.90;;;999.90;;
52724;SDS011;38621;52.830;6.914;2024-02-21T08:10:34;1542.00;;;790.03;;
52724;SDS011;38621;52.830;6.914;2024-02-21T08:13:00;1529.38;;;778.17;;
52724;SDS011;38621;52.830;6.914;2024-02-21T08:15:26;1999.90;;;999.90;;
52724;SDS011;38621;52.830;6.914;2024-02-21T08:17:55;1522.35;;;771.45;;
52724;SDS011;38621;52.830;6.914;2024-02-21T08:20:29;1999.90;;;999.90;;
52724;SDS011;38621;52.830;6.914;2024-02-21T08:22:55;1527.05;;;776.03;;
52724;SDS011;38621;52.830;6.914;2024-02-21T08:25:21;1137.03;;;629.28;;
52724;SDS011;38621;52.830;6.914;2024-02-21T08:27:46;1181.60;;;671.58;;
52724;SDS011;38621;52.830;6.914;2024-02-21T08:30:12;1999.90;;;999.90;;
52724;SDS011;38621;52.830;6.914;2024-02-21T08:32:38;767.95;;;505.35;;
52724;SDS011;38621;52.830;6.914;2024-02-21T08:35:04;1999.90;;;999.90;;
52724;SDS011;38621;52.830;6.914;2024-02-21T08:37:30;1999.90;;;999.90;;
52724;SDS011;38621;52.830;6.914;2024-02-21T08:39:56;1999.90;;;999.90;;
52724;SDS011;38621;52.830;6.914;2024-02-21T08:42:21;1999.90;;;999.90;;
52724;SDS011;38621;52.830;6.914;2024-02-21T08:44:47;1999.90;;;999.90;;
52724;SDS011;38621;52.830;6.914;2024-02-21T08:47:13;1999.90;;;999.90;;
52724;SDS011;38621;52.830;6.914;2024-02-21T08:49:38;1999.90;;;999.90;;
52724;SDS011;38621;52.830;6.914;2024-02-21T08:52:04;1999.90;;;999.90;;
52724;SDS011;38621;52.830;6.914;2024-02-21T08:54:30;1999.90;;;999.90;;
52724;SDS011;38621;52.830;6.914;2024-02-21T08:56:58;1999.90;;;999.90;;
52724;SDS011;38621;52.830;6.914;2024-02-21T08:59:23;1999.90;;;999.90;;
52724;SDS011;38621;52.830;6.914;2024-02-21T09:01:51;261.20;;;248.30;;
52724;SDS011;38621;52.830;6.914;2024-02-21T09:04:18;1531.95;;;780.65;;
52724;SDS011;38621;52.830;6.914;2024-02-21T09:06:44;1524.60;;;773.60;;
52724;SDS011;38621;52.830;6.914;2024-02-21T09:09:11;136.25;;;130.75;;
52724;SDS011;38621;52.830;6.914;2024-02-21T09:11:37;146.20;;;140.27;;
52724;SDS011;38621;52.830;6.914;2024-02-21T09:14:03;354.40;;;335.85;;
52724;SDS011;38621;52.830;6.914;2024-02-21T09:16:32;263.58;;;251.80;;
52724;SDS011;38621;52.830;6.914;2024-02-21T09:18:58;193.35;;;185.25;;
52724;SDS011;38621;52.830;6.914;2024-02-21T09:21:24;157.55;;;150.82;;
52724;SDS011;38621;52.830;6.914;2024-02-21T09:23:49;132.57;;;127.10;;
52724;SDS011;38621;52.830;6.914;2024-02-21T09:26:15;268.33;;;255.50;;
52724;SDS011;38621;52.830;6.914;2024-02-21T09:28:42;213.15;;;204.55;;
52724;SDS011;38621;52.830;6.914;2024-02-21T09:31:08;123.65;;;118.22;;
52724;SDS011;38621;52.830;6.914;2024-02-21T09:33:34;157.40;;;150.60;;
52724;SDS011;38621;52.830;6.914;2024-02-21T09:35:59;242.50;;;232.05;;
52724;SDS011;38621;52.830;6.914;2024-02-21T09:38:26;257.30;;;244.40;;
52724;SDS011;38621;52.830;6.914;2024-02-21T09:41:25;126.82;;;121.28;;
52724;SDS011;38621;52.830;6.914;2024-02-21T09:43:49;173.25;;;165.98;;
52724;SDS011;38621;52.830;6.914;2024-02-21T09:46:18;337.30;;;318.70;;
52724;SDS011;38621;52.830;6.914;2024-02-21T09:51:35;77.35;;;73.65;;
52724;SDS011;38621;52.830;6.914;2024-02-21T09:54:03;296.70;;;283.45;;
52724;SDS011;38621;52.830;6.914;2024-02-21T09:56:29;202.35;;;193.82;;
52724;SDS011;38621;52.830;6.914;2024-02-21T09:58:55;245.50;;;234.27;;
52724;SDS011;38621;52.830;6.914;2024-02-21T10:01:22;175.50;;;167.25;;
52724;SDS011;38621;52.830;6.914;2024-02-21T10:03:48;217.02;;;206.77;;
52724;SDS011;38621;52.830;6.914;2024-02-21T10:06:14;275.67;;;263.30;;
52724;SDS011;38621;52.830;6.914;2024-02-21T10:08:40;70.40;;;67.18;;
52724;SDS011;38621;52.830;6.914;2024-02-21T10:11:06;249.63;;;237.68;;
52724;SDS011;38621;52.830;6.914;2024-02-21T10:13:35;185.18;;;177.02;;
52724;SDS011;38621;52.830;6.914;2024-02-21T10:16:04;128.00;;;122.45;;
52724;SDS011;38621;52.830;6.914;2024-02-21T10:18:31;287.23;;;273.33;;
52724;SDS011;38621;52.830;6.914;2024-02-21T10:21:04;340.35;;;322.77;;
52724;SDS011;38621;52.830;6.914;2024-02-21T10:23:48;235.55;;;224.43;;
52724;SDS011;38621;52.830;6.914;2024-02-21T10:26:14;81.72;;;78.47;;
52724;SDS011;38621;52.830;6.914;2024-02-21T10:28:41;203.32;;;195.15;;
52724;SDS011;38621;52.830;6.914;2024-02-21T10:31:10;306.48;;;290.45;;
52724;SDS011;38621;52.830;6.914;2024-02-21T10:33:36;203.00;;;194.80;;
52724;SDS011;38621;52.830;6.914;2024-02-21T10:36:06;250.65;;;237.70;;
52724;SDS011;38621;52.830;6.914;2024-02-21T10:38:34;230.35;;;219.63;;
52724;SDS011;38621;52.830;6.914;2024-02-21T10:41:00;260.73;;;248.20;;
52724;SDS011;38621;52.830;6.914;2024-02-21T10:43:28;173.98;;;166.02;;
52724;SDS011;38621;52.830;6.914;2024-02-21T10:45:58;311.33;;;295.42;;
52724;SDS011;38621;52.830;6.914;2024-02-21T10:48:29;203.40;;;194.93;;
52724;SDS011;38621;52.830;6.914;2024-02-21T10:51:15;199.60;;;191.18;;
52724;SDS011;38621;52.830;6.914;2024-02-21T10:54:07;360.88;;;343.08;;
52724;SDS011;38621;52.830;6.914;2024-02-21T10:56:57;261.23;;;249.63;;
52724;SDS011;38621;52.830;6.914;2024-02-21T10:59:25;183.40;;;175.00;;
52724;SDS011;38621;52.830;6.914;2024-02-21T11:01:54;578.85;;;544.95;;
52724;SDS011;38621;52.830;6.914;2024-02-21T11:04:20;210.88;;;201.60;;
52724;SDS011;38621;52.830;6.914;2024-02-21T11:06:46;295.40;;;278.92;;
52724;SDS011;38621;52.830;6.914;2024-02-21T11:09:13;209.32;;;200.07;;
52724;SDS011;38621;52.830;6.914;2024-02-21T11:11:39;439.75;;;413.67;;
52724;SDS011;38621;52.830;6.914;2024-02-21T11:14:07;369.95;;;351.25;;
52724;SDS011;38621;52.830;6.914;2024-02-21T11:16:38;99.25;;;95.32;;
52724;SDS011;38621;52.830;6.914;2024-02-21T11:19:23;163.70;;;157.13;;
52724;SDS011;38621;52.830;6.914;2024-02-21T11:21:51;223.10;;;213.88;;
52724;SDS011;38621;52.830;6.914;2024-02-21T11:24:31;259.02;;;247.32;;
52724;SDS011;38621;52.830;6.914;2024-02-21T11:27:14;233.18;;;224.35;;
52724;SDS011;38621;52.830;6.914;2024-02-21T11:29:55;303.15;;;287.77;;
52724;SDS011;38621;52.830;6.914;2024-02-21T11:32:22;215.10;;;206.43;;
52724;SDS011;38621;52.830;6.914;2024-02-21T11:34:57;149.23;;;142.80;;
52724;SDS011;38621;52.830;6.914;2024-02-21T11:37:33;312.90;;;296.38;;
52724;SDS011;38621;52.830;6.914;2024-02-21T11:40:03;338.70;;;321.48;;
52724;SDS011;38621;52.830;6.914;2024-02-21T11:42:32;140.68;;;135.02;;
52724;SDS011;38621;52.830;6.914;2024-02-21T11:44:57;327.75;;;311.67;;
52724;SDS011;38621;52.830;6.914;2024-02-21T11:47:24;387.45;;;367.65;;
52724;SDS011;38621;52.830;6.914;2024-02-21T11:49:50;305.77;;;291.05;;
52724;SDS011;38621;52.830;6.914;2024-02-21T11:52:23;285.58;;;272.77;;
52724;SDS011;38621;52.830;6.914;2024-02-21T11:54:53;180.38;;;172.90;;
52724;SDS011;38621;52.830;6.914;2024-02-21T11:57:20;208.30;;;200.10;;
52724;SDS011;38621;52.830;6.914;2024-02-21T11:59:46;255.98;;;244.82;;
52724;SDS011;38621;52.830;6.914;2024-02-21T12:02:13;86.05;;;82.63;;
52724;SDS011;38621;52.830;6.914;2024-02-21T12:04:39;128.55;;;123.70;;
52724;SDS011;38621;52.830;6.914;2024-02-21T12:07:05;121.50;;;116.75;;
52724;SDS011;38621;52.830;6.914;2024-02-21T12:09:31;125.75;;;121.10;;
52724;SDS011;38621;52.830;6.914;2024-02-21T12:14:26;182.68;;;175.63;;
52724;SDS011;38621;52.830;6.914;2024-02-21T12:16:53;289.02;;;276.77;;
52724;SDS011;38621;52.830;6.914;2024-02-21T12:19:19;286.05;;;274.27;;
52724;SDS011;38621;52.830;6.914;2024-02-21T12:21:47;226.85;;;217.95;;
52724;SDS011;38621;52.830;6.914;2024-02-21T12:24:21;112.28;;;108.13;;
52724;SDS011;38621;52.830;6.914;2024-02-21T12:26:48;146.70;;;140.40;;
52724;SDS011;38621;52.830;6.914;2024-02-21T12:29:14;107.00;;;103.15;;
52724;SDS011;38621;52.830;6.914;2024-02-21T12:31:40;129.73;;;124.47;;
52724;SDS011;38621;52.830;6.914;2024-02-21T12:34:06;312.60;;;299.13;;
52724;SDS011;38621;52.830;6.914;2024-02-21T12:36:35;155.32;;;149.43;;
52724;SDS011;38621;52.830;6.914;2024-02-21T12:39:05;254.50;;;243.00;;
52724;SDS011;38621;52.830;6.914;2024-02-21T12:41:31;546.97;;;513.05;;
52724;SDS011;38621;52.830;6.914;2024-02-21T12:43:58;148.85;;;143.30;;
52724;SDS011;38621;52.830;6.914;2024-02-21T12:46:23;374.58;;;356.88;;
52724;SDS011;38621;52.830;6.914;2024-02-21T12:48:49;235.45;;;225.20;;
52724;SDS011;38621;52.830;6.914;2024-02-21T12:51:15;270.95;;;259.65;;
52724;SDS011;38621;52.830;6.914;2024-02-21T12:53:46;126.82;;;122.10;;
52724;SDS011;38621;52.830;6.914;2024-02-21T12:56:14;532.42;;;499.55;;
52724;SDS011;38621;52.830;6.914;2024-02-21T12:58:40;484.27;;;457.00;;
52724;SDS011;38621;52.830;6.914;2024-02-21T13:01:06;420.55;;;395.83;;
52724;SDS011;38621;52.830;6.914;2024-02-21T13:03:32;209.82;;;201.38;;
52724;SDS011;38621;52.830;6.914;2024-02-21T13:05:58;676.67;;;629.97;;
52724;SDS011;38621;52.830;6.914;2024-02-21T13:08:24;538.35;;;506.17;;
52724;SDS011;38621;52.830;6.914;2024-02-21T13:10:50;521.72;;;490.08;;
52724;SDS011;38621;52.830;6.914;2024-02-21T13:13:16;545.72;;;516.72;;
52724;SDS011;38621;52.830;6.914;2024-02-21T13:15:41;462.10;;;435.10;;
52724;SDS011;38621;52.830;6.914;2024-02-21T13:18:08;365.55;;;347.63;;
52724;SDS011;38621;52.830;6.914;2024-02-21T13:20:35;561.13;;;525.38;;
52724;SDS011;38621;52.830;6.914;2024-02-21T13:23:01;156.45;;;150.52;;
52724;SDS011;38621;52.830;6.914;2024-02-21T13:25:27;407.90;;;387.95;;
52724;SDS011;38621;52.830;6.914;2024-02-21T13:27:53;191.45;;;183.63;;
52724;SDS011;38621;52.830;6.914;2024-02-21T13:30:19;403.92;;;382.15;;
52724;SDS011;38621;52.830;6.914;2024-02-21T13:32:44;149.32;;;143.75;;
52724;SDS011;38621;52.830;6.914;2024-02-21T13:35:13;326.63;;;310.33;;
52724;SDS011;38621;52.830;6.914;2024-02-21T13:37:39;399.75;;;378.92;;
52724;SDS011;38621;52.830;6.914;2024-02-21T13:40:05;299.70;;;285.08;;
52724;SDS011;38621;52.830;6.914;2024-02-21T13:42:34;280.08;;;268.23;;
52724;SDS011;38621;52.830;6.914;2024-02-21T13:45:00;154.68;;;149.23;;
52724;SDS011;38621;52.830;6.914;2024-02-21T13:47:26;119.45;;;115.15;;
52724;SDS011;38621;52.830;6.914;2024-02-21T13:49:52;83.13;;;80.07;;
52724;SDS011;38621;52.830;6.914;2024-02-21T13:52:18;92.15;;;88.78;;
52724;SDS011;38621;52.830;6.914;2024-02-21T13:54:46;109.82;;;106.05;;
52724;SDS011;38621;52.830;6.914;2024-02-21T13:57:12;75.32;;;72.47;;
52724;SDS011;38621;52.830;6.914;2024-02-21T13:59:39;132.80;;;128.18;;